Davis, California
Current Conditions -  °F | °C
As of 9:53 PM on Friday 24 Oct 2014 (Local Time) from KSMF Reporting Station
Clear Clear  
Wind Chill: 64°   Ceiling: Unl
Heat Index: 64°   Visibility: 10mi
Dew Point: 52°   Wind: 17mph
Humidity: 65%   Direction: 210°SSW
Pressure: 29.87"   Gusts: NA
Location:  38.55°N, 121.74°W
Report Text: KSMF 250453Z 21015KT 10SM CLR 18/11 A2987 RMK AO2 SLP115 T01780111
Loading
Personal Weather Stations






























Interactive Weather Map New forecast layout! Learn more

10-Day Weather Forecast

Advertisements
Track Severe Weather on mobile